ADDS METAR Data INFO
IDs: Format: Raw Decoded Include TAF

Data at: 0316 UTC 20 Jul 2018

K1A5 200255Z AUTO 00000KT 10SM SCT033 SCT041 SCT047 21/20 A3011 RMK AO2 T02050199
K1A5 200235Z AUTO 00000KT 10SM SCT033 BKN043 BKN060 21/20 A3010 RMK AO2 T02090202
K1A5 200215Z AUTO 00000KT 10SM SCT031 BKN060 21/20 A3010 RMK AO2 T02100202
K1A5 200155Z AUTO 00000KT 10SM SCT031 OVC050 21/21 A3009 RMK AO2 T02110205
K1A5 200135Z AUTO 00000KT 10SM SCT033 BKN046 OVC050 22/21 A3009 RMK AO2 T02150207
K1A5 200115Z AUTO 00000KT 10SM SCT033 BKN045 21/20 A3008 RMK AO2 T02110204
K1A5 200055Z AUTO 00000KT 10SM SCT033 21/21 A3007 RMK AO2 T02140207
K1A5 200035Z AUTO 00000KT 10SM CLR 22/21 A3007 RMK AO2 T02200210
K1A5 200015Z AUTO 00000KT 10SM CLR 24/19 A3007 RMK AO2 T02350188
K1A5 192355Z AUTO 00000KT 10SM CLR 24/19 A3006 RMK AO2 T02390186 10294 20239
K1A5 192335Z AUTO 00000KT 10SM CLR 25/18 A3006 RMK AO2 T02450181
K1A5 192315Z AUTO 00000KT 10SM SCT036 25/18 A3006 RMK AO2 T02500179
K1A5 192255Z AUTO 11004KT 10SM SCT036 25/18 A3006 RMK AO2 T02520176
K1A5 192235Z AUTO 13007KT 090V170 10SM SCT037 27/18 A3004 RMK AO2 T02660175
K1A5 192215Z AUTO 11003KT 10SM SCT042 SCT080 27/18 A3004 RMK AO2 T02710183
K1A5 192155Z AUTO 14004KT 10SM SCT040 SCT080 26/18 A3006 RMK AO2 T02600180
K1A5 192135Z AUTO 10005KT 10SM SCT040 BKN048 27/18 A3004 RMK AO2 T02730181
K1A5 192115Z AUTO 12003KT 10SM BKN042 OVC050 27/19 A3004 RMK AO2 T02690186
K1A5 192055Z AUTO 11003KT 10SM BKN042 OVC055 27/18 A3004 RMK AO2 T02680184
K1A5 192035Z AUTO 12006KT 10SM BKN040 BKN046 BKN055 27/18 A3004 RMK AO2 T02690183
K1A5 192015Z AUTO 14004KT 10SM SCT038 SCT050 SCT090 29/18 A3004 RMK AO2 T02850184
K1A5 191955Z AUTO 10005KT 10SM BKN038 OVC050 29/19 A3004 RMK AO2 T02850185
K1A5 191935Z AUTO 15006KT 10SM BKN036 BKN042 BKN095 29/19 A3004 RMK AO2 T02890192
K1A5 191915Z AUTO 14004KT 10SM SCT039 SCT045 SCT095 29/19 A3006 RMK AO2 T02860185
K1A5 191855Z AUTO 17004KT 10SM SCT039 SCT047 29/19 A3006 RMK AO2 T02930189
K1A5 191835Z AUTO 17004KT 10SM SCT039 29/18 A3006 RMK AO2 T02880180
K1A5 191815Z AUTO 24006KT 10SM SCT039 SCT048 29/18 A3006 RMK AO2 T02890183
K1A5 191755Z AUTO 15005KT 10SM BKN037 BKN048 28/19 A3006 RMK AO2 T02820187 10291 20182
K1A5 191735Z AUTO 13005KT 10SM BKN035 BKN043 28/19 A3006 RMK AO2 T02800187
K1A5 191715Z AUTO 12006KT 10SM SCT037 SCT043 29/19 A3007 RMK AO2 T02880192
K1A5 191655Z AUTO 17003KT 10SM SCT035 BKN043 29/20 A3007 RMK AO2 T02870195
K1A5 191635Z AUTO 00000KT 10SM BKN033 OVC041 27/19 A3008 RMK AO2 T02690194
K1A5 191615Z AUTO 00000KT 10SM BKN031 OVC042 26/19 A3008 RMK AO2 T02600193
K1A5 191555Z AUTO 00000KT 10SM BKN029 BKN039 OVC070 27/20 A3008 RMK AO2 T02710195
K1A5 191535Z AUTO 07005KT 10SM SCT027 SCT032 BKN060 27/20 A3009 RMK AO2 T02690197
K1A5 191515Z AUTO 04003KT 10SM SCT027 26/19 A3009 RMK AO2 T02570193
K1A5 191455Z AUTO 00000KT 10SM SCT034 26/19 A3009 RMK AO2 T02560191
K1A5 191435Z AUTO 00000KT 10SM SCT030 SCT035 25/19 A3010 RMK AO2 T02480189
K1A5 191415Z AUTO 00000KT 10SM CLR 24/18 A3010 RMK AO2 T02360180
K1A5 191355Z AUTO 00000KT 10SM SCT030 23/19 A3010 RMK AO2 T02250185
K1A5 191335Z AUTO 00000KT 10SM BKN030 OVC050 21/19 A3011 RMK AO2 T02120192
K1A5 191315Z AUTO 00000KT 10SM SCT032 OVC050 21/20 A3011 RMK AO2 T02060195
K1A5 191255Z AUTO 00000KT 10SM SCT032 BKN050 20/19 A3010 RMK AO2 T02000192
K1A5 191235Z AUTO 00000KT 10SM SCT032 20/19 A3010 RMK AO2 T01950189
K1A5 191215Z AUTO 00000KT 10SM CLR 19/18 A3009 RMK AO2 T01880181
K1A5 191155Z AUTO 00000KT 10SM CLR 18/18 A3009 RMK AO2 T01810175 10181 20165
K1A5 191135Z AUTO 00000KT 10SM CLR 17/17 A3008 RMK AO2 T01720165
K1A5 191115Z AUTO 00000KT 7SM CLR 17/16 A3008 RMK AO2 T01670161
K1A5 191055Z AUTO 00000KT 7SM CLR 17/16 A3008 RMK AO2 T01650160
K1A5 191035Z AUTO 00000KT 7SM SCT050 17/16 A3006 RMK AO2 T01660160
K1A5 191015Z AUTO 00000KT 10SM BKN050 17/16 A3006 RMK AO2 T01690162
K1A5 190955Z AUTO 00000KT 10SM BKN050 17/17 A3006 RMK AO2 T01720165
K1A5 190935Z AUTO 00000KT 10SM BKN046 BKN055 18/17 A3006 RMK AO2 T01750170
K1A5 190915Z AUTO 00000KT 10SM BKN046 OVC055 18/17 A3006 RMK AO2 T01750167
K1A5 190855Z AUTO 00000KT 10SM OVC044 18/17 A3005 RMK AO2 T01750169
K1A5 190835Z AUTO 00000KT 10SM OVC042 18/17 A3004 RMK AO2 T01750167
K1A5 190815Z AUTO 00000KT 7SM SCT042 BKN060 17/17 A3004 RMK AO2 T01710165
K1A5 190755Z AUTO 00000KT 10SM BKN060 17/16 A3004 RMK AO2 T01700162
K1A5 190735Z AUTO 00000KT 7SM SCT060 17/17 A3004 RMK AO2 T01720166
K1A5 190715Z AUTO 00000KT 10SM SCT050 18/17 A3004 RMK AO2 T01750168
K1A5 190655Z AUTO 00000KT 10SM BKN050 18/17 A3004 RMK AO2 T01770171
K1A5 190635Z AUTO 22003KT 10SM SCT050 17/17 A3006 RMK AO2 T01730166
K1A5 190615Z AUTO 00000KT 10SM CLR 18/17 A3006 RMK AO2 T01760170
K1A5 190555Z AUTO 00000KT 10SM SCT049 18/17 A3006 RMK AO2 T01800172 10270 20180 403080180
K1A5 190535Z AUTO 00000KT 10SM BKN049 19/18 A3006 RMK AO2 T01850179
K1A5 190515Z AUTO 00000KT 10SM BKN049 BKN055 19/18 A3007 RMK AO2 T01850179
K1A5 190455Z AUTO 00000KT 10SM BKN047 OVC055 19/18 A3007 RMK AO2 T01880181
K1A5 190435Z AUTO 00000KT 10SM OVC048 19/18 A3007 RMK AO2 T01860180
K1A5 190415Z AUTO 00000KT 10SM BKN050 18/18 A3006 RMK AO2 T01840177
K1A5 190355Z AUTO 00000KT 10SM SCT043 BKN048 OVC060 19/18 A3006 RMK AO2 T01900182
K1A5 190335Z AUTO 00000KT 10SM BKN060 19/18 A3006 RMK AO2 T01900182
K1A5 190315Z AUTO 00000KT 10SM SCT060 BKN070 19/18 A3006 RMK AO2 T01850179
K1A5 190255Z AUTO 00000KT 10SM SCT070 19/18 A3006 RMK AO2 T01880181
K1A5 190235Z AUTO 00000KT 10SM SCT070 20/19 A3005 RMK AO2 T01950188
K1A5 190215Z AUTO 00000KT 10SM SCT070 19/19 A3004 RMK AO2 T01930187
K1A5 190155Z AUTO 23005KT 10SM BKN060 19/19 A3003 RMK AO2 T01930186
K1A5 190135Z AUTO 00000KT 10SM BKN060 20/18 A3002 RMK AO2 T02020176
K1A5 190055Z AUTO 25003KT 10SM BKN060 21/18 A3002 RMK AO2 T02090178
K1A5 190035Z AUTO 00000KT 10SM BKN060 24/16 A3001 RMK AO2 T02360157
K1A5 182355Z AUTO 34004KT 10SM CLR 27/14 A3000 RMK AO2 T02710137 10308 20271
K1A5 182335Z AUTO 00000KT 10SM CLR 28/15 A3000 RMK AO2 T02770146
K1A5 182315Z AUTO 31005KT 10SM CLR 28/14 A2999 RMK AO2 T02810137
K1A5 182255Z AUTO 32004KT 10SM CLR 29/14 A2999 RMK AO2 T02860139
K1A5 182235Z AUTO 30006KT 10SM CLR 29/14 A2999 RMK AO2 T02910141
K1A5 182215Z AUTO 30004KT 10SM CLR 29/14 A2999 RMK AO2 T02940142
K1A5 182155Z AUTO 32004KT 10SM CLR 30/14 A2999 RMK AO2 T02980143
K1A5 182135Z AUTO 36006KT 10SM CLR 30/15 A2999 RMK AO2 T03010146
K1A5 182115Z AUTO 31004KT 10SM CLR 30/15 A2999 RMK AO2 T03020151
K1A5 182055Z AUTO 01005KT 10SM CLR 30/15 A2999 RMK AO2 T03040148
K1A5 182035Z AUTO 32006KT 10SM CLR 30/15 A2999 RMK AO2 T03030152
K1A5 182015Z AUTO 36005KT 10SM CLR 30/15 A3000 RMK AO2 T03040153
K1A5 181955Z AUTO 34007KT 10SM CLR 31/16 A3000 RMK AO2 T03050155
K1A5 181935Z AUTO 04005KT 10SM CLR 31/15 A3001 RMK AO2 T03070148
K1A5 181915Z AUTO 36005KT 10SM CLR 31/14 A3002 RMK AO2 T03060142
K1A5 181855Z AUTO 32005KT 10SM CLR 31/13 A3002 RMK AO2 T03050131
K1A5 181835Z AUTO 24003KT 10SM CLR 30/15 A3003 RMK AO2 T02990154
K1A5 181815Z AUTO 32005KT 10SM CLR 30/16 A3003 RMK AO2 T03040160
K1A5 181755Z AUTO 29003KT 10SM CLR 30/15 A3003 RMK AO2 T02960147 10299 20205
K1A5 181735Z AUTO 00000KT 10SM CLR 29/16 A3004 RMK AO2 T02910155
K1A5 181715Z AUTO 00000KT 10SM CLR 29/16 A3004 RMK AO2 T02890160
K1A5 181655Z AUTO 00000KT 10SM CLR 29/18 A3005 RMK AO2 T02850184
K1A5 181635Z AUTO 00000KT 10SM CLR 27/20 A3006 RMK AO2 T02700196
K1A5 181615Z AUTO 00000KT 10SM CLR 26/21 A3007 RMK AO2 T02620205
K1A5 181555Z AUTO 00000KT 10SM CLR 26/21 A3007 RMK AO2 T02580209
K1A5 181535Z AUTO 00000KT 10SM CLR 25/21 A3008 RMK AO2 T02520211